sensor_id;sensor_type;location;lat;lon;timestamp;P1;durP1;ratioP1;P2;durP2;ratioP2
5880;SDS011;2966;52.598;10.928;2022-09-09T00:01:35;17.90;;;11.50;;
5880;SDS011;2966;52.598;10.928;2022-09-09T00:04:09;13.63;;;10.63;;
5880;SDS011;2966;52.598;10.928;2022-09-09T00:06:43;10.50;;;8.33;;
5880;SDS011;2966;52.598;10.928;2022-09-09T00:09:12;15.33;;;10.80;;
5880;SDS011;2966;52.598;10.928;2022-09-09T00:11:43;17.33;;;11.43;;
5880;SDS011;2966;52.598;10.928;2022-09-09T00:14:18;15.73;;;11.50;;
5880;SDS011;2966;52.598;10.928;2022-09-09T00:16:50;16.67;;;11.37;;
5880;SDS011;2966;52.598;10.928;2022-09-09T00:19:22;15.53;;;10.83;;
5880;SDS011;2966;52.598;10.928;2022-09-09T00:22:00;15.17;;;11.20;;
5880;SDS011;2966;52.598;10.928;2022-09-09T00:24:41;12.60;;;10.13;;
5880;SDS011;2966;52.598;10.928;2022-09-09T00:27:13;15.40;;;11.33;;
5880;SDS011;2966;52.598;10.928;2022-09-09T00:29:47;13.53;;;10.40;;
5880;SDS011;2966;52.598;10.928;2022-09-09T00:32:20;11.93;;;9.10;;
5880;SDS011;2966;52.598;10.928;2022-09-09T00:34:48;24.20;;;12.10;;
5880;SDS011;2966;52.598;10.928;2022-09-09T00:37:18;17.23;;;10.07;;
5880;SDS011;2966;52.598;10.928;2022-09-09T00:39:47;16.17;;;10.70;;
5880;SDS011;2966;52.598;10.928;2022-09-09T00:42:18;16.77;;;12.00;;
5880;SDS011;2966;52.598;10.928;2022-09-09T00:44:53;12.90;;;10.20;;
5880;SDS011;2966;52.598;10.928;2022-09-09T00:47:35;11.43;;;8.60;;
5880;SDS011;2966;52.598;10.928;2022-09-09T00:50:11;12.83;;;8.33;;
5880;SDS011;2966;52.598;10.928;2022-09-09T00:52:44;11.80;;;8.50;;
5880;SDS011;2966;52.598;10.928;2022-09-09T00:55:20;14.97;;;11.20;;
5880;SDS011;2966;52.598;10.928;2022-09-09T00:57:54;12.10;;;8.67;;
5880;SDS011;2966;52.598;10.928;2022-09-09T01:00:23;12.23;;;8.40;;
5880;SDS011;2966;52.598;10.928;2022-09-09T01:02:55;18.13;;;8.47;;
5880;SDS011;2966;52.598;10.928;2022-09-09T01:05:34;9.80;;;8.80;;
5880;SDS011;2966;52.598;10.928;2022-09-09T01:08:09;13.40;;;7.90;;
5880;SDS011;2966;52.598;10.928;2022-09-09T01:10:48;8.53;;;6.90;;
5880;SDS011;2966;52.598;10.928;2022-09-09T01:13:19;10.70;;;8.00;;
5880;SDS011;2966;52.598;10.928;2022-09-09T01:15:52;9.67;;;7.30;;
5880;SDS011;2966;52.598;10.928;2022-09-09T01:18:21;8.47;;;7.23;;
5880;SDS011;2966;52.598;10.928;2022-09-09T01:20:53;7.27;;;6.30;;
5880;SDS011;2966;52.598;10.928;2022-09-09T01:23:38;9.50;;;5.87;;
5880;SDS011;2966;52.598;10.928;2022-09-09T01:26:26;10.50;;;6.70;;
5880;SDS011;2966;52.598;10.928;2022-09-09T01:28:56;11.70;;;6.27;;
5880;SDS011;2966;52.598;10.928;2022-09-09T01:31:26;11.43;;;6.50;;
5880;SDS011;2966;52.598;10.928;2022-09-09T01:33:57;8.50;;;6.90;;
5880;SDS011;2966;52.598;10.928;2022-09-09T01:36:26;10.57;;;6.97;;
5880;SDS011;2966;52.598;10.928;2022-09-09T01:38:58;5.80;;;4.80;;
5880;SDS011;2966;52.598;10.928;2022-09-09T01:41:27;7.60;;;5.97;;
5880;SDS011;2966;52.598;10.928;2022-09-09T01:43:54;6.63;;;5.50;;
5880;SDS011;2966;52.598;10.928;2022-09-09T01:46:22;10.00;;;6.10;;
5880;SDS011;2966;52.598;10.928;2022-09-09T01:48:49;6.43;;;5.17;;
5880;SDS011;2966;52.598;10.928;2022-09-09T01:51:18;5.80;;;5.30;;
5880;SDS011;2966;52.598;10.928;2022-09-09T01:53:45;11.07;;;5.70;;
5880;SDS011;2966;52.598;10.928;2022-09-09T01:56:16;6.13;;;4.60;;
5880;SDS011;2966;52.598;10.928;2022-09-09T01:59:12;8.30;;;5.87;;
5880;SDS011;2966;52.598;10.928;2022-09-09T02:01:54;8.20;;;4.73;;
5880;SDS011;2966;52.598;10.928;2022-09-09T02:04:35;9.30;;;6.73;;
5880;SDS011;2966;52.598;10.928;2022-09-09T02:07:06;6.50;;;5.80;;
5880;SDS011;2966;52.598;10.928;2022-09-09T02:09:41;15.63;;;5.20;;
5880;SDS011;2966;52.598;10.928;2022-09-09T02:12:11;5.60;;;4.73;;
5880;SDS011;2966;52.598;10.928;2022-09-09T02:14:46;7.67;;;6.20;;
5880;SDS011;2966;52.598;10.928;2022-09-09T02:17:19;7.00;;;5.77;;
5880;SDS011;2966;52.598;10.928;2022-09-09T02:19:52;5.60;;;4.90;;
5880;SDS011;2966;52.598;10.928;2022-09-09T02:22:23;6.53;;;5.83;;
5880;SDS011;2966;52.598;10.928;2022-09-09T02:24:53;13.93;;;5.60;;
5880;SDS011;2966;52.598;10.928;2022-09-09T02:27:24;7.33;;;4.80;;
5880;SDS011;2966;52.598;10.928;2022-09-09T02:29:53;5.33;;;4.70;;
5880;SDS011;2966;52.598;10.928;2022-09-09T02:32:23;5.87;;;5.10;;
5880;SDS011;2966;52.598;10.928;2022-09-09T02:34:51;8.57;;;6.10;;
5880;SDS011;2966;52.598;10.928;2022-09-09T02:37:24;5.43;;;4.70;;
5880;SDS011;2966;52.598;10.928;2022-09-09T02:39:57;6.30;;;5.20;;
5880;SDS011;2966;52.598;10.928;2022-09-09T02:42:24;4.93;;;4.43;;
5880;SDS011;2966;52.598;10.928;2022-09-09T02:44:50;5.80;;;4.67;;
5880;SDS011;2966;52.598;10.928;2022-09-09T02:47:22;10.03;;;4.90;;
5880;SDS011;2966;52.598;10.928;2022-09-09T02:49:56;4.33;;;4.03;;
5880;SDS011;2966;52.598;10.928;2022-09-09T02:52:32;5.77;;;4.97;;
5880;SDS011;2966;52.598;10.928;2022-09-09T02:55:06;5.40;;;4.90;;
5880;SDS011;2966;52.598;10.928;2022-09-09T02:57:41;6.60;;;5.23;;
5880;SDS011;2966;52.598;10.928;2022-09-09T03:00:12;6.33;;;4.93;;
5880;SDS011;2966;52.598;10.928;2022-09-09T03:02:39;4.97;;;4.27;;
5880;SDS011;2966;52.598;10.928;2022-09-09T03:05:07;6.93;;;4.80;;
5880;SDS011;2966;52.598;10.928;2022-09-09T03:07:34;6.43;;;3.77;;
5880;SDS011;2966;52.598;10.928;2022-09-09T03:10:01;3.60;;;3.30;;
5880;SDS011;2966;52.598;10.928;2022-09-09T03:12:29;4.40;;;4.00;;
5880;SDS011;2966;52.598;10.928;2022-09-09T03:14:56;5.03;;;4.30;;
5880;SDS011;2966;52.598;10.928;2022-09-09T03:17:24;5.60;;;4.17;;
5880;SDS011;2966;52.598;10.928;2022-09-09T03:19:53;4.70;;;4.30;;
5880;SDS011;2966;52.598;10.928;2022-09-09T03:22:20;5.20;;;4.30;;
5880;SDS011;2966;52.598;10.928;2022-09-09T03:24:47;4.70;;;3.17;;
5880;SDS011;2966;52.598;10.928;2022-09-09T03:27:14;4.23;;;3.93;;
5880;SDS011;2966;52.598;10.928;2022-09-09T03:29:41;4.83;;;4.37;;
5880;SDS011;2966;52.598;10.928;2022-09-09T03:32:08;4.23;;;2.93;;
5880;SDS011;2966;52.598;10.928;2022-09-09T03:34:37;8.10;;;3.77;;
5880;SDS011;2966;52.598;10.928;2022-09-09T03:37:05;9.03;;;4.63;;
5880;SDS011;2966;52.598;10.928;2022-09-09T03:39:32;5.47;;;4.27;;
5880;SDS011;2966;52.598;10.928;2022-09-09T03:41:58;4.07;;;3.70;;
5880;SDS011;2966;52.598;10.928;2022-09-09T03:44:28;3.33;;;3.03;;
5880;SDS011;2966;52.598;10.928;2022-09-09T03:46:55;3.93;;;3.13;;
5880;SDS011;2966;52.598;10.928;2022-09-09T03:49:22;4.07;;;3.30;;
5880;SDS011;2966;52.598;10.928;2022-09-09T03:51:51;4.37;;;3.97;;
5880;SDS011;2966;52.598;10.928;2022-09-09T03:54:18;3.83;;;3.47;;
5880;SDS011;2966;52.598;10.928;2022-09-09T03:56:44;3.93;;;3.50;;
5880;SDS011;2966;52.598;10.928;2022-09-09T03:59:11;4.03;;;3.33;;
5880;SDS011;2966;52.598;10.928;2022-09-09T04:01:39;6.13;;;3.30;;
5880;SDS011;2966;52.598;10.928;2022-09-09T04:04:05;4.17;;;3.40;;
5880;SDS011;2966;52.598;10.928;2022-09-09T04:06:33;3.83;;;3.50;;
5880;SDS011;2966;52.598;10.928;2022-09-09T04:09:02;5.90;;;3.07;;
5880;SDS011;2966;52.598;10.928;2022-09-09T04:11:28;3.70;;;3.13;;
5880;SDS011;2966;52.598;10.928;2022-09-09T04:13:55;4.20;;;3.40;;
5880;SDS011;2966;52.598;10.928;2022-09-09T04:16:22;3.93;;;3.63;;
5880;SDS011;2966;52.598;10.928;2022-09-09T04:18:49;3.50;;;3.17;;
5880;SDS011;2966;52.598;10.928;2022-09-09T04:21:16;4.97;;;3.93;;
5880;SDS011;2966;52.598;10.928;2022-09-09T04:23:42;6.90;;;3.90;;
5880;SDS011;2966;52.598;10.928;2022-09-09T04:26:10;4.67;;;4.03;;
5880;SDS011;2966;52.598;10.928;2022-09-09T04:28:37;3.63;;;3.30;;
5880;SDS011;2966;52.598;10.928;2022-09-09T04:31:04;5.87;;;3.43;;
5880;SDS011;2966;52.598;10.928;2022-09-09T04:33:32;3.80;;;3.30;;
5880;SDS011;2966;52.598;10.928;2022-09-09T04:35:58;4.80;;;2.40;;
5880;SDS011;2966;52.598;10.928;2022-09-09T04:38:25;3.87;;;2.80;;
5880;SDS011;2966;52.598;10.928;2022-09-09T04:40:52;12.50;;;3.17;;
5880;SDS011;2966;52.598;10.928;2022-09-09T04:43:20;5.87;;;4.90;;
5880;SDS011;2966;52.598;10.928;2022-09-09T04:45:48;4.10;;;3.70;;
5880;SDS011;2966;52.598;10.928;2022-09-09T04:48:16;3.37;;;3.13;;
5880;SDS011;2966;52.598;10.928;2022-09-09T04:50:43;3.50;;;3.20;;
5880;SDS011;2966;52.598;10.928;2022-09-09T04:53:10;3.37;;;3.07;;
5880;SDS011;2966;52.598;10.928;2022-09-09T04:55:36;3.53;;;2.97;;
5880;SDS011;2966;52.598;10.928;2022-09-09T04:58:03;2.80;;;2.60;;
5880;SDS011;2966;52.598;10.928;2022-09-09T05:00:32;3.37;;;3.07;;
5880;SDS011;2966;52.598;10.928;2022-09-09T05:03:02;4.73;;;3.10;;
5880;SDS011;2966;52.598;10.928;2022-09-09T05:05:30;4.43;;;3.20;;
5880;SDS011;2966;52.598;10.928;2022-09-09T05:08:00;6.70;;;3.37;;
5880;SDS011;2966;52.598;10.928;2022-09-09T05:10:29;4.57;;;3.20;;
5880;SDS011;2966;52.598;10.928;2022-09-09T05:12:56;3.70;;;3.40;;
5880;SDS011;2966;52.598;10.928;2022-09-09T05:15:23;6.10;;;3.97;;
5880;SDS011;2966;52.598;10.928;2022-09-09T05:17:51;3.97;;;3.30;;
5880;SDS011;2966;52.598;10.928;2022-09-09T05:20:18;4.10;;;3.17;;
5880;SDS011;2966;52.598;10.928;2022-09-09T05:22:46;4.50;;;4.00;;
5880;SDS011;2966;52.598;10.928;2022-09-09T05:25:13;5.13;;;3.83;;
5880;SDS011;2966;52.598;10.928;2022-09-09T05:27:39;5.07;;;3.37;;
5880;SDS011;2966;52.598;10.928;2022-09-09T05:30:08;4.20;;;3.73;;
5880;SDS011;2966;52.598;10.928;2022-09-09T05:32:35;3.63;;;3.30;;
5880;SDS011;2966;52.598;10.928;2022-09-09T05:35:04;3.60;;;3.27;;
5880;SDS011;2966;52.598;10.928;2022-09-09T05:37:31;2.77;;;2.57;;
5880;SDS011;2966;52.598;10.928;2022-09-09T05:39:58;5.07;;;3.00;;
5880;SDS011;2966;52.598;10.928;2022-09-09T05:42:29;2.70;;;2.40;;
5880;SDS011;2966;52.598;10.928;2022-09-09T05:44:56;5.90;;;2.90;;
5880;SDS011;2966;52.598;10.928;2022-09-09T05:47:23;5.00;;;2.80;;
5880;SDS011;2966;52.598;10.928;2022-09-09T05:49:52;3.27;;;2.93;;
5880;SDS011;2966;52.598;10.928;2022-09-09T05:52:21;5.43;;;2.73;;
5880;SDS011;2966;52.598;10.928;2022-09-09T05:54:48;3.90;;;2.77;;
5880;SDS011;2966;52.598;10.928;2022-09-09T05:57:15;4.80;;;2.80;;
5880;SDS011;2966;52.598;10.928;2022-09-09T05:59:42;6.33;;;3.03;;
5880;SDS011;2966;52.598;10.928;2022-09-09T06:02:09;3.27;;;2.97;;
5880;SDS011;2966;52.598;10.928;2022-09-09T06:04:36;2.40;;;2.20;;
5880;SDS011;2966;52.598;10.928;2022-09-09T06:07:04;3.03;;;2.83;;
5880;SDS011;2966;52.598;10.928;2022-09-09T06:09:33;6.43;;;2.33;;
5880;SDS011;2966;52.598;10.928;2022-09-09T06:12:00;15.53;;;3.40;;
5880;SDS011;2966;52.598;10.928;2022-09-09T06:14:27;2.77;;;2.50;;
5880;SDS011;2966;52.598;10.928;2022-09-09T06:16:54;2.70;;;2.50;;
5880;SDS011;2966;52.598;10.928;2022-09-09T06:19:21;4.03;;;2.77;;
5880;SDS011;2966;52.598;10.928;2022-09-09T06:21:49;3.03;;;2.70;;
5880;SDS011;2966;52.598;10.928;2022-09-09T06:24:16;2.80;;;2.40;;
5880;SDS011;2966;52.598;10.928;2022-09-09T06:26:45;3.50;;;2.47;;
5880;SDS011;2966;52.598;10.928;2022-09-09T06:29:12;5.10;;;2.60;;
5880;SDS011;2966;52.598;10.928;2022-09-09T06:31:39;3.40;;;3.10;;
5880;SDS011;2966;52.598;10.928;2022-09-09T06:34:06;3.60;;;3.00;;
5880;SDS011;2966;52.598;10.928;2022-09-09T06:36:35;2.40;;;1.73;;
5880;SDS011;2966;52.598;10.928;2022-09-09T06:39:03;4.23;;;2.93;;
5880;SDS011;2966;52.598;10.928;2022-09-09T06:41:31;4.13;;;2.70;;
5880;SDS011;2966;52.598;10.928;2022-09-09T06:44:00;3.90;;;2.40;;
5880;SDS011;2966;52.598;10.928;2022-09-09T06:46:29;3.77;;;2.57;;
5880;SDS011;2966;52.598;10.928;2022-09-09T06:48:58;2.53;;;2.37;;
5880;SDS011;2966;52.598;10.928;2022-09-09T06:51:26;2.50;;;2.30;;
5880;SDS011;2966;52.598;10.928;2022-09-09T06:53:54;2.27;;;2.17;;
5880;SDS011;2966;52.598;10.928;2022-09-09T06:56:22;2.97;;;2.60;;
5880;SDS011;2966;52.598;10.928;2022-09-09T06:58:52;3.20;;;2.37;;
5880;SDS011;2966;52.598;10.928;2022-09-09T07:01:22;4.00;;;2.43;;
5880;SDS011;2966;52.598;10.928;2022-09-09T07:03:51;4.80;;;2.60;;
5880;SDS011;2966;52.598;10.928;2022-09-09T07:06:20;3.20;;;2.80;;
5880;SDS011;2966;52.598;10.928;2022-09-09T07:08:48;2.90;;;2.70;;
5880;SDS011;2966;52.598;10.928;2022-09-09T07:11:16;1.93;;;1.83;;
5880;SDS011;2966;52.598;10.928;2022-09-09T07:13:43;7.83;;;2.67;;
5880;SDS011;2966;52.598;10.928;2022-09-09T07:16:11;5.43;;;2.10;;
5880;SDS011;2966;52.598;10.928;2022-09-09T07:18:40;3.17;;;2.87;;
5880;SDS011;2966;52.598;10.928;2022-09-09T07:21:08;3.67;;;2.17;;
5880;SDS011;2966;52.598;10.928;2022-09-09T07:23:37;2.67;;;1.87;;
5880;SDS011;2966;52.598;10.928;2022-09-09T07:26:06;5.70;;;1.53;;
5880;SDS011;2966;52.598;10.928;2022-09-09T07:28:34;2.10;;;1.90;;
5880;SDS011;2966;52.598;10.928;2022-09-09T07:31:01;2.70;;;2.23;;
5880;SDS011;2966;52.598;10.928;2022-09-09T07:33:30;3.67;;;1.90;;
5880;SDS011;2966;52.598;10.928;2022-09-09T07:36:02;2.10;;;1.90;;
5880;SDS011;2966;52.598;10.928;2022-09-09T07:38:32;5.00;;;2.83;;
5880;SDS011;2966;52.598;10.928;2022-09-09T07:41:03;6.03;;;2.70;;
5880;SDS011;2966;52.598;10.928;2022-09-09T07:43:33;6.10;;;2.47;;
5880;SDS011;2966;52.598;10.928;2022-09-09T07:45:59;6.03;;;2.40;;
5880;SDS011;2966;52.598;10.928;2022-09-09T07:48:27;4.50;;;2.90;;
5880;SDS011;2966;52.598;10.928;2022-09-09T07:51:03;2.53;;;2.37;;
5880;SDS011;2966;52.598;10.928;2022-09-09T07:53:36;3.90;;;3.07;;
5880;SDS011;2966;52.598;10.928;2022-09-09T07:56:05;5.00;;;2.83;;
5880;SDS011;2966;52.598;10.928;2022-09-09T07:58:34;5.63;;;2.20;;
5880;SDS011;2966;52.598;10.928;2022-09-09T08:01:05;4.23;;;2.90;;
5880;SDS011;2966;52.598;10.928;2022-09-09T08:03:33;4.87;;;2.30;;
5880;SDS011;2966;52.598;10.928;2022-09-09T08:06:00;6.27;;;2.60;;
5880;SDS011;2966;52.598;10.928;2022-09-09T08:08:29;5.00;;;2.67;;
5880;SDS011;2966;52.598;10.928;2022-09-09T08:11:03;5.60;;;2.37;;
5880;SDS011;2966;52.598;10.928;2022-09-09T08:13:32;4.13;;;2.23;;
5880;SDS011;2966;52.598;10.928;2022-09-09T08:16:06;2.57;;;2.37;;
5880;SDS011;2966;52.598;10.928;2022-09-09T08:18:33;4.50;;;2.57;;
5880;SDS011;2966;52.598;10.928;2022-09-09T08:21:07;8.10;;;3.20;;
5880;SDS011;2966;52.598;10.928;2022-09-09T08:23:38;4.70;;;2.70;;
5880;SDS011;2966;52.598;10.928;2022-09-09T08:26:06;4.57;;;2.30;;
5880;SDS011;2966;52.598;10.928;2022-09-09T08:28:35;6.47;;;3.40;;
5880;SDS011;2966;52.598;10.928;2022-09-09T08:31:08;2.60;;;2.23;;
5880;SDS011;2966;52.598;10.928;2022-09-09T08:33:37;6.13;;;2.90;;
5880;SDS011;2966;52.598;10.928;2022-09-09T08:36:04;4.00;;;2.70;;
5880;SDS011;2966;52.598;10.928;2022-09-09T08:38:34;2.20;;;2.00;;
5880;SDS011;2966;52.598;10.928;2022-09-09T08:41:07;4.50;;;2.70;;
5880;SDS011;2966;52.598;10.928;2022-09-09T08:43:48;7.10;;;2.40;;
5880;SDS011;2966;52.598;10.928;2022-09-09T08:46:20;3.37;;;2.50;;
5880;SDS011;2966;52.598;10.928;2022-09-09T08:48:52;9.43;;;2.83;;
5880;SDS011;2966;52.598;10.928;2022-09-09T08:51:24;2.40;;;2.20;;
5880;SDS011;2966;52.598;10.928;2022-09-09T08:53:53;3.47;;;2.90;;
5880;SDS011;2966;52.598;10.928;2022-09-09T08:56:25;4.87;;;2.03;;
5880;SDS011;2966;52.598;10.928;2022-09-09T08:58:54;2.30;;;2.10;;
5880;SDS011;2966;52.598;10.928;2022-09-09T09:01:26;3.13;;;2.40;;
5880;SDS011;2966;52.598;10.928;2022-09-09T09:04:05;3.70;;;2.40;;
5880;SDS011;2966;52.598;10.928;2022-09-09T09:06:43;3.23;;;1.97;;
5880;SDS011;2966;52.598;10.928;2022-09-09T09:09:18;6.80;;;2.30;;
5880;SDS011;2966;52.598;10.928;2022-09-09T09:11:51;5.13;;;2.60;;
5880;SDS011;2966;52.598;10.928;2022-09-09T09:14:21;1.73;;;1.60;;
5880;SDS011;2966;52.598;10.928;2022-09-09T09:16:51;6.20;;;1.87;;
5880;SDS011;2966;52.598;10.928;2022-09-09T09:19:19;2.60;;;1.80;;
5880;SDS011;2966;52.598;10.928;2022-09-09T09:21:48;3.70;;;3.40;;
5880;SDS011;2966;52.598;10.928;2022-09-09T09:24:20;4.20;;;2.40;;
5880;SDS011;2966;52.598;10.928;2022-09-09T09:26:52;4.50;;;2.13;;
5880;SDS011;2966;52.598;10.928;2022-09-09T09:29:20;3.73;;;1.97;;
5880;SDS011;2966;52.598;10.928;2022-09-09T09:31:48;2.50;;;2.30;;
5880;SDS011;2966;52.598;10.928;2022-09-09T09:34:19;4.53;;;2.20;;
5880;SDS011;2966;52.598;10.928;2022-09-09T09:36:54;2.80;;;2.00;;
5880;SDS011;2966;52.598;10.928;2022-09-09T09:39:23;3.30;;;1.70;;
5880;SDS011;2966;52.598;10.928;2022-09-09T09:41:53;3.80;;;2.47;;
5880;SDS011;2966;52.598;10.928;2022-09-09T09:44:22;2.90;;;2.70;;
5880;SDS011;2966;52.598;10.928;2022-09-09T09:46:51;18.27;;;4.20;;
5880;SDS011;2966;52.598;10.928;2022-09-09T09:49:18;2.37;;;2.17;;
5880;SDS011;2966;52.598;10.928;2022-09-09T09:51:45;2.13;;;1.90;;
5880;SDS011;2966;52.598;10.928;2022-09-09T09:54:14;6.33;;;2.00;;
5880;SDS011;2966;52.598;10.928;2022-09-09T09:56:48;1.83;;;1.53;;
5880;SDS011;2966;52.598;10.928;2022-09-09T09:59:33;5.50;;;1.90;;
5880;SDS011;2966;52.598;10.928;2022-09-09T10:02:13;3.07;;;1.80;;
5880;SDS011;2966;52.598;10.928;2022-09-09T10:04:42;2.60;;;2.40;;
5880;SDS011;2966;52.598;10.928;2022-09-09T10:07:10;2.20;;;2.00;;
5880;SDS011;2966;52.598;10.928;2022-09-09T10:09:38;2.13;;;2.03;;
5880;SDS011;2966;52.598;10.928;2022-09-09T10:12:08;3.93;;;2.20;;
5880;SDS011;2966;52.598;10.928;2022-09-09T10:14:50;8.93;;;3.57;;
5880;SDS011;2966;52.598;10.928;2022-09-09T10:17:23;2.67;;;2.47;;
5880;SDS011;2966;52.598;10.928;2022-09-09T10:20:04;2.27;;;2.07;;
5880;SDS011;2966;52.598;10.928;2022-09-09T10:22:45;3.27;;;2.20;;
5880;SDS011;2966;52.598;10.928;2022-09-09T10:25:20;3.40;;;2.27;;
5880;SDS011;2966;52.598;10.928;2022-09-09T10:28:04;2.40;;;2.20;;
5880;SDS011;2966;52.598;10.928;2022-09-09T10:30:46;3.53;;;2.50;;
5880;SDS011;2966;52.598;10.928;2022-09-09T10:33:22;2.23;;;2.03;;
5880;SDS011;2966;52.598;10.928;2022-09-09T10:35:57;2.17;;;1.97;;
5880;SDS011;2966;52.598;10.928;2022-09-09T10:38:37;2.37;;;1.90;;
5880;SDS011;2966;52.598;10.928;2022-09-09T10:41:11;4.00;;;2.07;;
5880;SDS011;2966;52.598;10.928;2022-09-09T10:44:02;2.47;;;2.03;;
5880;SDS011;2966;52.598;10.928;2022-09-09T10:46:45;7.03;;;2.03;;
5880;SDS011;2966;52.598;10.928;2022-09-09T10:49:27;3.60;;;3.30;;
5880;SDS011;2966;52.598;10.928;2022-09-09T10:52:17;2.07;;;1.87;;
5880;SDS011;2966;52.598;10.928;2022-09-09T10:54:51;2.97;;;1.93;;
5880;SDS011;2966;52.598;10.928;2022-09-09T10:57:28;2.20;;;1.90;;
5880;SDS011;2966;52.598;10.928;2022-09-09T11:00:01;2.80;;;1.80;;
5880;SDS011;2966;52.598;10.928;2022-09-09T11:02:33;3.80;;;2.10;;
5880;SDS011;2966;52.598;10.928;2022-09-09T11:05:02;2.37;;;1.83;;
5880;SDS011;2966;52.598;10.928;2022-09-09T11:07:35;1.60;;;1.50;;
5880;SDS011;2966;52.598;10.928;2022-09-09T11:10:13;2.53;;;1.47;;
5880;SDS011;2966;52.598;10.928;2022-09-09T11:12:45;4.40;;;1.60;;
5880;SDS011;2966;52.598;10.928;2022-09-09T11:15:16;1.97;;;1.87;;
5880;SDS011;2966;52.598;10.928;2022-09-09T11:17:48;1.50;;;1.37;;
5880;SDS011;2966;52.598;10.928;2022-09-09T11:20:16;1.63;;;1.53;;
5880;SDS011;2966;52.598;10.928;2022-09-09T11:22:45;1.40;;;1.30;;
5880;SDS011;2966;52.598;10.928;2022-09-09T11:25:15;4.57;;;1.93;;
5880;SDS011;2966;52.598;10.928;2022-09-09T11:27:49;5.07;;;1.90;;
5880;SDS011;2966;52.598;10.928;2022-09-09T11:30:33;4.83;;;1.57;;
5880;SDS011;2966;52.598;10.928;2022-09-09T11:33:22;3.10;;;1.53;;
5880;SDS011;2966;52.598;10.928;2022-09-09T11:36:08;2.73;;;1.23;;
5880;SDS011;2966;52.598;10.928;2022-09-09T11:39:00;1.37;;;0.90;;
5880;SDS011;2966;52.598;10.928;2022-09-09T11:41:37;1.80;;;1.23;;
5880;SDS011;2966;52.598;10.928;2022-09-09T11:44:09;2.20;;;1.47;;
5880;SDS011;2966;52.598;10.928;2022-09-09T11:46:38;2.30;;;1.23;;
5880;SDS011;2966;52.598;10.928;2022-09-09T11:51:56;1.40;;;1.20;;
5880;SDS011;2966;52.598;10.928;2022-09-09T11:54:30;1.07;;;0.97;;
5880;SDS011;2966;52.598;10.928;2022-09-09T11:57:04;4.93;;;1.60;;
5880;SDS011;2966;52.598;10.928;2022-09-09T11:59:57;3.43;;;1.00;;
5880;SDS011;2966;52.598;10.928;2022-09-09T12:02:27;3.43;;;1.27;;
5880;SDS011;2966;52.598;10.928;2022-09-09T12:04:59;4.30;;;1.30;;
5880;SDS011;2966;52.598;10.928;2022-09-09T12:07:37;1.30;;;1.20;;
5880;SDS011;2966;52.598;10.928;2022-09-09T12:10:27;1.07;;;0.83;;
5880;SDS011;2966;52.598;10.928;2022-09-09T12:13:08;2.40;;;0.90;;
5880;SDS011;2966;52.598;10.928;2022-09-09T12:15:46;0.87;;;0.87;;
5880;SDS011;2966;52.598;10.928;2022-09-09T12:18:15;3.90;;;1.57;;
5880;SDS011;2966;52.598;10.928;2022-09-09T12:20:54;2.40;;;1.47;;
5880;SDS011;2966;52.598;10.928;2022-09-09T12:23:30;1.93;;;1.47;;
5880;SDS011;2966;52.598;10.928;2022-09-09T12:26:07;2.13;;;1.30;;
5880;SDS011;2966;52.598;10.928;2022-09-09T12:28:51;2.33;;;1.17;;
5880;SDS011;2966;52.598;10.928;2022-09-09T12:31:25;3.87;;;1.37;;
5880;SDS011;2966;52.598;10.928;2022-09-09T12:34:02;2.23;;;0.93;;
5880;SDS011;2966;52.598;10.928;2022-09-09T12:36:37;4.33;;;2.37;;
5880;SDS011;2966;52.598;10.928;2022-09-09T12:39:09;2.33;;;1.73;;
5880;SDS011;2966;52.598;10.928;2022-09-09T12:41:49;1.30;;;1.20;;
5880;SDS011;2966;52.598;10.928;2022-09-09T12:44:21;1.73;;;1.40;;
5880;SDS011;2966;52.598;10.928;2022-09-09T12:46:48;1.07;;;0.97;;
5880;SDS011;2966;52.598;10.928;2022-09-09T12:49:24;2.90;;;1.17;;
5880;SDS011;2966;52.598;10.928;2022-09-09T12:51:57;1.60;;;1.30;;
5880;SDS011;2966;52.598;10.928;2022-09-09T12:54:25;2.10;;;1.70;;
5880;SDS011;2966;52.598;10.928;2022-09-09T12:56:53;5.20;;;2.40;;
5880;SDS011;2966;52.598;10.928;2022-09-09T12:59:22;8.57;;;3.27;;
5880;SDS011;2966;52.598;10.928;2022-09-09T13:01:57;9.67;;;2.43;;
5880;SDS011;2966;52.598;10.928;2022-09-09T13:04:24;10.07;;;2.37;;
5880;SDS011;2966;52.598;10.928;2022-09-09T13:06:52;4.10;;;1.83;;
5880;SDS011;2966;52.598;10.928;2022-09-09T13:09:21;5.07;;;1.60;;
5880;SDS011;2966;52.598;10.928;2022-09-09T13:11:49;9.40;;;1.80;;
5880;SDS011;2966;52.598;10.928;2022-09-09T13:14:23;1.80;;;1.30;;
5880;SDS011;2966;52.598;10.928;2022-09-09T13:16:55;2.83;;;1.70;;
5880;SDS011;2966;52.598;10.928;2022-09-09T13:19:23;2.90;;;1.50;;
5880;SDS011;2966;52.598;10.928;2022-09-09T13:21:52;5.30;;;1.70;;
5880;SDS011;2966;52.598;10.928;2022-09-09T13:24:29;5.33;;;1.30;;
5880;SDS011;2966;52.598;10.928;2022-09-09T13:26:57;2.83;;;1.50;;
5880;SDS011;2966;52.598;10.928;2022-09-09T13:29:26;3.07;;;1.23;;
5880;SDS011;2966;52.598;10.928;2022-09-09T13:31:54;2.27;;;1.57;;
5880;SDS011;2966;52.598;10.928;2022-09-09T13:34:32;4.30;;;1.50;;
5880;SDS011;2966;52.598;10.928;2022-09-09T13:37:00;3.90;;;1.80;;
5880;SDS011;2966;52.598;10.928;2022-09-09T13:39:32;3.80;;;1.33;;
5880;SDS011;2966;52.598;10.928;2022-09-09T13:42:00;3.87;;;1.30;;
5880;SDS011;2966;52.598;10.928;2022-09-09T13:44:28;2.60;;;1.00;;
5880;SDS011;2966;52.598;10.928;2022-09-09T13:47:00;2.53;;;1.10;;
5880;SDS011;2966;52.598;10.928;2022-09-09T13:49:30;1.27;;;1.17;;
5880;SDS011;2966;52.598;10.928;2022-09-09T13:52:09;1.13;;;1.03;;
5880;SDS011;2966;52.598;10.928;2022-09-09T13:54:40;2.90;;;1.07;;
5880;SDS011;2966;52.598;10.928;2022-09-09T13:57:14;2.30;;;1.00;;
5880;SDS011;2966;52.598;10.928;2022-09-09T13:59:43;2.97;;;1.87;;
5880;SDS011;2966;52.598;10.928;2022-09-09T14:02:09;2.77;;;1.50;;
5880;SDS011;2966;52.598;10.928;2022-09-09T14:04:36;3.20;;;2.00;;
5880;SDS011;2966;52.598;10.928;2022-09-09T14:07:07;2.60;;;1.33;;
5880;SDS011;2966;52.598;10.928;2022-09-09T14:09:37;3.43;;;1.60;;
5880;SDS011;2966;52.598;10.928;2022-09-09T14:12:05;5.57;;;1.83;;
5880;SDS011;2966;52.598;10.928;2022-09-09T14:14:34;2.93;;;2.10;;
5880;SDS011;2966;52.598;10.928;2022-09-09T14:17:01;1.93;;;1.50;;
5880;SDS011;2966;52.598;10.928;2022-09-09T14:19:28;6.47;;;1.73;;
5880;SDS011;2966;52.598;10.928;2022-09-09T14:21:55;2.47;;;1.87;;
5880;SDS011;2966;52.598;10.928;2022-09-09T14:24:22;1.43;;;1.30;;
5880;SDS011;2966;52.598;10.928;2022-09-09T14:26:50;4.80;;;1.30;;
5880;SDS011;2966;52.598;10.928;2022-09-09T14:29:18;2.40;;;1.23;;
5880;SDS011;2966;52.598;10.928;2022-09-09T14:31:44;1.53;;;1.43;;
5880;SDS011;2966;52.598;10.928;2022-09-09T14:34:11;3.43;;;2.53;;
5880;SDS011;2966;52.598;10.928;2022-09-09T14:36:39;4.30;;;1.43;;
5880;SDS011;2966;52.598;10.928;2022-09-09T14:39:07;1.50;;;1.40;;
5880;SDS011;2966;52.598;10.928;2022-09-09T14:41:35;1.67;;;1.30;;
5880;SDS011;2966;52.598;10.928;2022-09-09T14:44:02;6.87;;;1.37;;
5880;SDS011;2966;52.598;10.928;2022-09-09T14:46:31;3.47;;;1.40;;
5880;SDS011;2966;52.598;10.928;2022-09-09T14:48:58;1.53;;;1.10;;
5880;SDS011;2966;52.598;10.928;2022-09-09T14:51:25;6.10;;;1.53;;
5880;SDS011;2966;52.598;10.928;2022-09-09T14:53:53;2.30;;;1.10;;
5880;SDS011;2966;52.598;10.928;2022-09-09T14:56:23;2.20;;;1.37;;
5880;SDS011;2966;52.598;10.928;2022-09-09T14:58:52;1.17;;;1.10;;
5880;SDS011;2966;52.598;10.928;2022-09-09T15:01:20;7.23;;;1.77;;
5880;SDS011;2966;52.598;10.928;2022-09-09T15:03:50;1.90;;;1.40;;
5880;SDS011;2966;52.598;10.928;2022-09-09T15:06:18;2.47;;;1.47;;
5880;SDS011;2966;52.598;10.928;2022-09-09T15:08:49;2.70;;;1.13;;
5880;SDS011;2966;52.598;10.928;2022-09-09T15:11:19;4.10;;;1.67;;
5880;SDS011;2966;52.598;10.928;2022-09-09T15:13:50;3.13;;;1.30;;
5880;SDS011;2966;52.598;10.928;2022-09-09T15:16:18;2.70;;;1.67;;
5880;SDS011;2966;52.598;10.928;2022-09-09T15:18:50;2.90;;;2.07;;
5880;SDS011;2966;52.598;10.928;2022-09-09T15:21:21;3.80;;;2.07;;
5880;SDS011;2966;52.598;10.928;2022-09-09T15:23:49;7.20;;;2.47;;
5880;SDS011;2966;52.598;10.928;2022-09-09T15:26:16;3.73;;;3.30;;